Time;durP1;ratioP1;P1;durP2;ratioP2;P2;SDS_P1;SDS_P2;PMS_P1;PMS_P2;Temp;Humidity;BMP_temperature;BMP_pressure;BME280_temperature;BME280_humidity;BME280_pressure;Samples;Min_cycle;Max_cycle;Signal;HPM_P1;HPM_P2
2023/02/27 00:01:41;;;;;;;13.70;4.85;;;;;;;0.40;62.97;100899.44;30858424;28;97003;-68
2023/02/27 00:16:41;;;;;;;12.02;4.75;;;;;;;0.35;63.25;100910.16;30856991;28;97199;-68
2023/02/27 00:31:42;;;;;;;9.90;4.28;;;;;;;0.32;63.28;100912.97;30856384;28;97062;-68
2023/02/27 00:46:42;;;;;;;9.32;4.22;;;;;;;0.28;63.45;100909.66;30855091;28;96638;-68
2023/02/27 01:01:43;;;;;;;7.47;4.03;;;;;;;0.22;63.35;100910.03;30853849;28;96661;-69
2023/02/27 01:16:43;;;;;;;8.13;3.65;;;;;;;0.15;63.47;100912.13;30852844;28;97245;-68
2023/02/27 01:31:44;;;;;;;8.85;3.42;;;;;;;0.16;63.60;100892.88;30852305;28;96734;-69
2023/02/27 01:46:44;;;;;;;13.48;4.40;;;;;;;0.13;63.75;100911.34;30851036;28;96650;-68
2023/02/27 02:01:45;;;;;;;8.57;3.38;;;;;;;0.02;63.86;100912.91;30868136;28;96777;-69
2023/02/27 02:16:58;;;;;;;5.57;2.90;;;;;;;-0.01;63.95;100921.78;30869234;28;96812;-68
2023/02/27 02:32:25;;;;;;;6.63;3.10;;;;;;;-0.05;63.74;100928.94;30867132;28;96596;-68
2023/02/27 02:48:08;;;;;;;9.20;3.30;;;;;;;-0.10;63.60;100941.44;30865160;28;97351;-68
2023/02/27 03:03:28;;;;;;;6.55;3.22;;;;;;;-0.09;63.70;100956.22;30862702;28;96738;-69
2023/02/27 03:18:39;;;;;;;5.97;2.70;;;;;;;-0.06;64.10;100978.78;30862201;28;96798;-68
2023/02/27 03:33:47;;;;;;;5.97;2.95;;;;;;;-0.16;63.61;100986.31;30861120;28;96993;-68
2023/02/27 03:48:47;;;;;;;7.10;2.58;;;;;;;-0.14;63.91;100992.28;30857937;28;96709;-68
2023/02/27 04:03:59;;;;;;;3.83;2.10;;;;;;;-0.21;63.99;101001.41;30858076;28;96612;-68
2023/02/27 04:19:28;;;;;;;4.45;2.35;;;;;;;-0.24;64.20;101023.34;30856040;28;97292;-69
2023/02/27 04:34:38;;;;;;;6.13;2.55;;;;;;;-0.24;64.29;101022.53;30913939;28;97117;-70
2023/02/27 04:49:53;;;;;;;3.22;2.15;;;;;;;-0.35;64.30;101023.91;30973800;28;96818;-69
2023/02/27 05:05:00;;;;;;;4.90;2.30;;;;;;;-0.33;64.90;101036.09;30970376;28;96619;-67
2023/02/27 05:20:03;;;;;;;8.77;2.25;;;;;;;-0.39;65.23;101048.56;30968014;28;96804;-67
2023/02/27 05:35:30;;;;;;;12.65;2.97;;;;;;;-0.44;65.17;101058.41;30986971;28;98321;-68
2023/02/27 05:50:33;;;;;;;4.78;2.50;;;;;;;-0.62;65.49;101070.66;30988255;28;96819;-69
2023/02/27 06:05:36;;;;;;;7.57;3.05;;;;;;;-0.52;65.79;101085.00;30987948;28;96711;-67
2023/02/27 06:20:36;;;;;;;4.95;2.42;;;;;;;-0.41;65.72;101086.22;30986967;28;96813;-67
2023/02/27 06:35:37;;;;;;;6.90;3.50;;;;;;;-0.28;66.01;101096.94;30984491;28;96723;-71
2023/02/27 06:50:37;;;;;;;7.50;3.47;;;;;;;-0.08;65.93;101111.59;30982373;28;98262;-68
2023/02/27 07:05:39;;;;;;;9.63;2.55;;;;;;;0.14;65.86;101113.97;30981471;28;97488;-69
2023/02/27 07:20:40;;;;;;;7.20;2.92;;;;;;;0.35;65.64;101126.88;30953190;28;96982;-69
2023/02/27 07:35:40;;;;;;;14.88;3.63;;;;;;;0.54;65.58;101151.19;30860211;28;97293;-71
2023/02/27 07:50:40;;;;;;;8.20;3.22;;;;;;;0.82;65.15;101141.81;30851736;28;97519;-73
2023/02/27 08:05:41;;;;;;;6.25;2.95;;;;;;;1.39;64.82;101157.03;30851831;28;97438;-68
2023/02/27 08:20:41;;;;;;;7.30;2.72;;;;;;;1.99;64.36;101165.88;30888097;28;97468;-67
2023/02/27 08:35:41;;;;;;;6.93;3.30;;;;;;;2.60;63.47;101174.47;30962161;28;96806;-67
2023/02/27 08:50:42;;;;;;;4.78;2.80;;;;;;;2.95;62.50;101184.56;30960268;28;97331;-72
2023/02/27 09:05:42;;;;;;;7.00;3.00;;;;;;;3.42;62.39;101195.66;30971525;28;97173;-68
2023/02/27 09:20:43;;;;;;;6.50;3.15;;;;;;;4.03;61.27;101200.47;30981956;28;97472;-68
2023/02/27 09:35:43;;;;;;;7.10;3.50;;;;;;;5.39;59.39;101186.59;30932551;28;98381;-70
2023/02/27 09:50:47;;;;;;;7.68;3.15;;;;;;;7.36;56.13;101201.56;30983980;28;97258;-70
2023/02/27 10:05:51;;;;;;;;;;;;;;;7.95;53.37;101223.28;30906005;28;98545;-69
2023/02/27 10:21:05;;;;;;;12.18;3.38;;;;;;;7.82;51.88;101228.78;30856168;28;96758;-71
2023/02/27 10:36:10;;;;;;;6.93;2.17;;;;;;;8.38;49.69;101226.78;30963235;28;96826;-70
2023/02/27 10:51:30;;;;;;;6.93;2.73;;;;;;;10.23;45.90;101214.94;30976147;28;98025;-69
2023/02/27 11:06:31;;;;;;;4.93;2.03;;;;;;;11.72;43.51;101207.78;30971433;28;97350;-70
2023/02/27 11:21:32;;;;;;;2.92;1.50;;;;;;;12.27;39.66;101209.41;30980896;28;97368;-69
2023/02/27 11:36:42;;;;;;;4.75;2.00;;;;;;;11.26;37.66;101190.97;30937754;28;97288;-71
2023/02/27 11:52:01;;;;;;;5.90;1.77;;;;;;;10.15;37.66;101195.16;30934658;28;96900;-72
2023/02/27 12:07:12;;;;;;;3.67;1.53;;;;;;;10.92;35.82;101189.78;30930914;28;96906;-70
2023/02/27 12:22:19;;;;;;;4.40;1.90;;;;;;;7.92;39.80;101200.50;30907351;28;97387;-68
2023/02/27 12:37:25;;;;;;;10.67;2.47;;;;;;;6.09;42.49;101206.13;30948393;28;96645;-71
2023/02/27 12:52:43;;;;;;;9.15;2.95;;;;;;;5.35;45.93;101211.53;30952435;28;97341;-71
2023/02/27 13:07:56;;;;;;;7.93;1.65;;;;;;;4.66;46.35;101222.59;30899794;28;98049;-71
2023/02/27 13:23:20;;;;;;;4.90;1.48;;;;;;;4.63;46.39;101221.94;30898912;28;96754;-73
2023/02/27 13:38:39;;;;;;;4.15;2.38;;;;;;;4.08;46.31;101227.38;30962063;28;96817;-73
2023/02/27 13:53:39;;;;;;;4.93;2.25;;;;;;;3.89;46.84;101243.56;30977984;28;97414;-70
2023/02/27 14:08:49;;;;;;;5.97;3.30;;;;;;;3.39;47.75;101238.84;30985480;28;96799;-73
2023/02/27 14:23:53;;;;;;;7.53;4.13;;;;;;;3.21;49.38;101256.66;30986153;28;96759;-71
2023/02/27 14:38:56;;;;;;;9.70;4.57;;;;;;;3.14;49.91;101262.41;30987202;28;96703;-73
2023/02/27 14:54:16;;;;;;;5.22;2.83;;;;;;;2.78;50.75;101274.28;30984776;28;97345;-71
2023/02/27 15:09:20;;;;;;;8.23;4.32;;;;;;;2.37;51.38;101299.47;30984470;28;96837;-70
2023/02/27 15:24:21;;;;;;;;;;;;;;;2.17;53.09;101303.25;30982742;28;97175;-72
2023/02/27 15:39:24;;;;;;;5.95;3.08;;;;;;;2.08;52.38;101317.78;30977734;28;97078;-73
2023/02/27 15:54:30;;;;;;;8.55;3.83;;;;;;;1.99;52.85;101328.81;30969755;28;96797;-72
2023/02/27 16:09:35;;;;;;;5.78;2.95;;;;;;;1.84;52.80;101351.53;30923563;28;97799;-74
2023/02/27 16:24:36;;;;;;;5.82;2.95;;;;;;;1.57;52.52;101364.41;30965256;28;97500;-72
2023/02/27 16:39:36;;;;;;;6.53;3.80;;;;;;;1.31;52.64;101382.41;30966960;28;97251;-71
2023/02/27 16:54:37;;;;;;;8.65;3.95;;;;;;;1.08;53.50;101400.22;30965783;28;97034;-70
2023/02/27 17:09:38;;;;;;;6.30;4.50;;;;;;;0.91;54.04;101398.44;30963036;28;96698;-72
2023/02/27 17:24:38;;;;;;;7.28;4.53;;;;;;;0.89;55.27;101407.31;30967403;28;96816;-71
2023/02/27 17:39:40;;;;;;;7.88;3.80;;;;;;;0.84;55.57;101410.19;30980370;28;96998;-68
2023/02/27 17:54:40;;;;;;;16.45;5.00;;;;;;;0.71;55.95;101417.81;30980308;28;97219;-67
2023/02/27 18:09:40;;;;;;;14.30;5.82;;;;;;;0.59;56.44;101427.13;30980230;28;97064;-67
2023/02/27 18:24:41;;;;;;;13.15;5.55;;;;;;;0.36;56.98;101436.13;30978207;28;97080;-67
2023/02/27 18:39:42;;;;;;;17.40;8.68;;;;;;;0.05;57.09;101444.59;30977049;28;97462;-66
2023/02/27 18:54:43;;;;;;;16.30;7.00;;;;;;;-0.12;57.66;101464.56;30974521;28;97119;-68
2023/02/27 19:09:43;;;;;;;15.10;6.68;;;;;;;-0.37;57.68;101473.50;30970366;28;97075;-66
2023/02/27 19:24:44;;;;;;;15.30;7.57;;;;;;;-0.90;57.90;101484.53;30969421;28;96741;-68
2023/02/27 19:39:45;;;;;;;13.57;7.40;;;;;;;-1.32;58.73;101490.63;30946503;28;96902;-66
2023/02/27 19:54:45;;;;;;;22.10;8.98;;;;;;;-1.72;59.32;101499.09;30759496;27;97165;-66
2023/02/27 20:09:46;;;;;;;20.30;8.52;;;;;;;-2.00;59.96;101517.56;30701616;28;97401;-72
2023/02/27 20:24:46;;;;;;;22.85;8.48;;;;;;;-2.29;59.89;101526.47;30601574;28;97302;-73
2023/02/27 20:39:48;;;;;;;33.83;14.85;;;;;;;-2.51;60.90;101516.78;30648547;28;98021;-74
2023/02/27 20:54:48;;;;;;;19.63;9.77;;;;;;;-2.60;61.50;101524.91;30651624;28;97816;-73
2023/02/27 21:09:49;;;;;;;23.80;10.38;;;;;;;-2.32;62.33;101526.56;30688090;28;97525;-74
2023/02/27 21:24:51;;;;;;;29.05;12.13;;;;;;;-1.85;62.77;101542.25;30735606;28;97221;-75
2023/02/27 21:39:54;;;;;;;33.30;13.85;;;;;;;-1.44;62.55;101545.06;30766193;28;96894;-75
2023/02/27 21:54:55;;;;;;;26.80;11.93;;;;;;;-1.17;62.33;101560.59;30765974;28;97547;-76
2023/02/27 22:09:55;;;;;;;26.02;11.60;;;;;;;-0.89;62.49;101549.00;30758433;28;97594;-75
2023/02/27 22:24:55;;;;;;;15.80;8.07;;;;;;;-0.68;62.16;101547.28;30745659;28;97571;-75
2023/02/27 22:39:56;;;;;;;20.98;11.55;;;;;;;-0.58;61.34;101538.09;30746142;28;97099;-75
2023/02/27 22:54:56;;;;;;;26.10;11.98;;;;;;;-0.42;61.43;101538.31;30744435;28;97236;-75
2023/02/27 23:09:57;;;;;;;26.10;12.90;;;;;;;-0.36;60.71;101553.75;30743223;28;97447;-76
2023/02/27 23:24:57;;;;;;;20.65;10.07;;;;;;;-0.37;61.08;101559.91;30738416;28;100020;-75
2023/02/27 23:39:57;;;;;;;23.75;10.23;;;;;;;-0.35;61.15;101555.44;30740634;28;96658;-75
2023/02/27 23:54:58;;;;;;;20.45;10.65;;;;;;;-0.21;61.05;101573.19;30738694;28;96788;-76
